createdAt,value
2023-06-19T00:00:03.113Z,68.00
2023-06-19T00:01:03.246Z,68.00
2023-06-19T00:02:02.529Z,69.00
2023-06-19T00:03:02.281Z,69.00
2023-06-19T00:04:02.261Z,70.00
2023-06-19T00:05:02.292Z,70.00
2023-06-19T00:06:02.393Z,71.00
2023-06-19T00:07:02.512Z,70.00
2023-06-19T00:08:02.367Z,69.00
2023-06-19T00:09:02.968Z,68.00
2023-06-19T00:10:02.956Z,68.00
2023-06-19T00:11:02.781Z,69.00
2023-06-19T00:12:02.989Z,68.00
2023-06-19T00:13:03.050Z,70.00
2023-06-19T00:14:03.118Z,70.00
2023-06-19T00:15:03.193Z,69.00
2023-06-19T00:16:03.176Z,70.00
2023-06-19T00:17:03.122Z,71.00
2023-06-19T00:18:03.458Z,71.00
2023-06-19T00:19:02.912Z,70.00
2023-06-19T00:20:03.139Z,71.00
2023-06-19T00:21:03.228Z,70.00
2023-06-19T00:22:02.402Z,69.00
2023-06-19T00:23:02.683Z,71.00
2023-06-19T00:24:02.572Z,73.00
2023-06-19T00:25:02.542Z,73.00
2023-06-19T00:26:02.438Z,70.00
2023-06-19T00:27:03.000Z,69.00
2023-06-19T00:28:03.312Z,68.00
2023-06-19T00:29:03.370Z,68.00
2023-06-19T00:30:03.353Z,70.00
2023-06-19T00:31:03.006Z,71.00
2023-06-19T00:32:03.111Z,71.00
2023-06-19T00:33:03.285Z,71.00
2023-06-19T00:34:02.932Z,71.00
2023-06-19T00:35:03.075Z,70.00
2023-06-19T00:36:03.075Z,72.00
2023-06-19T00:37:03.160Z,71.00
2023-06-19T00:38:03.270Z,72.00
2023-06-19T00:39:03.401Z,73.00
2023-06-19T00:40:03.476Z,73.00
2023-06-19T00:41:03.352Z,73.00
2023-06-19T00:42:02.458Z,72.00
2023-06-19T00:43:02.574Z,70.00
2023-06-19T00:44:02.758Z,71.00
2023-06-19T00:45:02.603Z,72.00
2023-06-19T00:46:02.699Z,71.00
2023-06-19T00:47:02.584Z,69.00
2023-06-19T00:48:02.845Z,70.00
2023-06-19T00:49:02.767Z,71.00
2023-06-19T00:50:02.858Z,71.00
2023-06-19T00:51:02.752Z,69.00
2023-06-19T00:52:02.842Z,69.00
2023-06-19T00:53:02.954Z,67.00
2023-06-19T00:54:03.070Z,68.00
2023-06-19T00:55:02.575Z,68.00
2023-06-19T00:56:02.656Z,67.00
2023-06-19T00:57:03.464Z,68.00
2023-06-19T00:58:03.280Z,68.00
2023-06-19T00:59:03.362Z,67.00
2023-06-19T01:00:03.509Z,68.00
2023-06-19T01:01:08.760Z,68.00
2023-06-19T01:02:03.229Z,70.00
2023-06-19T01:03:03.238Z,70.00
2023-06-19T01:04:03.212Z,71.00
2023-06-19T01:05:02.817Z,71.00
2023-06-19T01:06:02.950Z,72.00
2023-06-19T01:07:02.983Z,72.00
2023-06-19T01:08:02.551Z,71.00
2023-06-19T01:09:02.728Z,72.00
2023-06-19T01:10:02.446Z,72.00
2023-06-19T01:11:09.029Z,71.00
2023-06-19T01:12:03.368Z,72.00
2023-06-19T01:13:03.476Z,70.00
2023-06-19T01:14:03.322Z,69.00
2023-06-19T01:15:03.368Z,68.00
2023-06-19T01:16:03.463Z,68.00
2023-06-19T01:17:03.527Z,70.00
2023-06-19T01:18:03.720Z,72.00
2023-06-19T01:19:03.631Z,71.00
2023-06-19T01:20:03.723Z,69.00
2023-06-19T01:21:03.496Z,68.00
2023-06-19T01:22:03.696Z,68.00
2023-06-19T01:23:03.153Z,68.00
2023-06-19T01:24:03.332Z,67.00
2023-06-19T01:25:03.276Z,67.00
2023-06-19T01:26:03.405Z,68.00
2023-06-19T01:27:02.781Z,70.00
2023-06-19T01:28:02.893Z,70.00
2023-06-19T01:29:02.975Z,69.00
2023-06-19T01:30:02.951Z,69.00
2023-06-19T01:31:02.941Z,68.00
2023-06-19T01:32:03.777Z,68.00
2023-06-19T01:33:03.953Z,68.00
2023-06-19T01:34:03.856Z,68.00
2023-06-19T01:35:03.668Z,68.00
2023-06-19T01:36:03.771Z,69.00
2023-06-19T01:37:03.850Z,69.00
2023-06-19T01:38:03.912Z,70.00
2023-06-19T01:39:03.763Z,70.00
2023-06-19T01:40:03.879Z,70.00
2023-06-19T01:41:03.979Z,70.00
2023-06-19T01:42:03.335Z,70.00
2023-06-19T01:43:03.387Z,70.00
2023-06-19T01:44:03.503Z,69.00
2023-06-19T01:45:03.658Z,69.00
2023-06-19T01:46:03.324Z,68.00
2023-06-19T01:47:03.974Z,68.00
2023-06-19T01:48:03.912Z,68.00
2023-06-19T01:49:03.881Z,70.00
2023-06-19T01:50:03.926Z,68.00
2023-06-19T01:51:04.002Z,68.00
2023-06-19T01:52:02.908Z,69.00
2023-06-19T01:53:02.694Z,68.00
2023-06-19T01:54:02.756Z,68.00
2023-06-19T01:55:02.868Z,68.00
2023-06-19T01:56:02.948Z,68.00
2023-06-19T01:57:03.141Z,67.00
2023-06-19T01:58:03.508Z,67.00
2023-06-19T01:59:03.598Z,68.00
2023-06-19T02:00:03.698Z,68.00
2023-06-19T02:01:03.428Z,69.00
2023-06-19T02:02:01.704Z,68.00
2023-06-19T02:03:02.297Z,68.00
2023-06-19T02:04:01.862Z,66.00
2023-06-19T02:05:01.988Z,66.00
2023-06-19T02:06:02.007Z,66.00
2023-06-19T02:07:02.515Z,66.00
2023-06-19T02:08:02.624Z,67.00
2023-06-19T02:09:02.667Z,68.00
2023-06-19T02:10:02.756Z,68.00
2023-06-19T02:11:02.168Z,69.00
2023-06-19T02:12:02.377Z,70.00
2023-06-19T02:13:02.523Z,70.00
2023-06-19T02:14:02.395Z,70.00
2023-06-19T02:15:02.870Z,69.00
2023-06-19T02:16:02.740Z,69.00
2023-06-19T02:17:01.942Z,70.00
2023-06-19T02:18:02.048Z,69.00
2023-06-19T02:19:02.170Z,68.00
2023-06-19T02:20:02.465Z,68.00
2023-06-19T02:21:02.271Z,68.00
2023-06-19T02:22:02.258Z,68.00
2023-06-19T02:23:02.418Z,68.00
2023-06-19T02:24:02.549Z,69.00
2023-06-19T02:25:02.617Z,69.00
2023-06-19T02:26:02.470Z,68.00
2023-06-19T02:27:02.586Z,69.00
2023-06-19T02:28:03.138Z,69.00
2023-06-19T02:29:03.069Z,69.00
2023-06-19T02:30:03.183Z,68.00
2023-06-19T02:31:02.958Z,69.00
2023-06-19T02:32:02.225Z,70.00
2023-06-19T02:33:02.591Z,70.00
2023-06-19T02:34:02.305Z,70.00
2023-06-19T02:35:02.308Z,69.00
2023-06-19T02:36:02.387Z,68.00
2023-06-19T02:37:02.516Z,70.00
2023-06-19T02:38:02.629Z,68.00
2023-06-19T02:39:02.746Z,68.00
2023-06-19T02:40:02.903Z,69.00
2023-06-19T02:41:02.934Z,70.00
2023-06-19T02:42:02.303Z,70.00
2023-06-19T02:43:02.193Z,68.00
2023-06-19T02:44:01.954Z,67.00
2023-06-19T02:45:02.068Z,67.00
2023-06-19T02:46:02.265Z,67.00
2023-06-19T02:47:02.406Z,66.00
2023-06-19T02:48:02.542Z,66.00
2023-06-19T02:49:02.470Z,66.00
2023-06-19T02:50:02.598Z,67.00
2023-06-19T02:51:02.516Z,68.00
2023-06-19T02:52:02.645Z,69.00
2023-06-19T02:53:02.793Z,70.00
2023-06-19T02:54:02.503Z,71.00
2023-06-19T02:55:03.022Z,71.00
2023-06-19T02:56:03.176Z,71.00
2023-06-19T02:57:02.402Z,71.00
2023-06-19T02:58:02.019Z,71.00
2023-06-19T02:59:02.263Z,70.00
2023-06-19T03:00:02.441Z,70.00
2023-06-19T03:01:01.825Z,71.00
2023-06-19T03:02:02.710Z,72.00
2023-06-19T03:03:02.509Z,72.00
2023-06-19T03:04:02.780Z,71.00
2023-06-19T03:05:02.983Z,71.00
2023-06-19T03:06:02.941Z,71.00
2023-06-19T03:07:03.092Z,71.00
2023-06-19T03:08:03.290Z,71.00
2023-06-19T03:09:02.894Z,72.00
2023-06-19T03:10:03.448Z,71.00
2023-06-19T03:11:02.845Z,70.00
2023-06-19T03:12:02.799Z,69.00
2023-06-19T03:13:02.466Z,69.00
2023-06-19T03:14:02.814Z,70.00
2023-06-19T03:15:03.015Z,69.00
2023-06-19T03:16:02.517Z,70.00
2023-06-19T03:17:03.252Z,68.00
2023-06-19T03:18:03.520Z,68.00
2023-06-19T03:19:03.621Z,70.00
2023-06-19T03:20:03.756Z,71.00
2023-06-19T03:21:03.289Z,70.00
2023-06-19T03:22:03.098Z,69.00
2023-06-19T03:23:03.062Z,68.00
2023-06-19T03:24:03.358Z,69.00
2023-06-19T03:25:02.977Z,68.00
2023-06-19T03:26:03.197Z,69.00
2023-06-19T03:27:03.426Z,68.00
2023-06-19T03:28:03.679Z,70.00
2023-06-19T03:29:03.119Z,70.00
2023-06-19T03:30:03.273Z,69.00
2023-06-19T03:31:03.402Z,70.00
2023-06-19T03:32:03.577Z,70.00
2023-06-19T03:33:03.873Z,70.00
2023-06-19T03:34:03.697Z,69.00
2023-06-19T03:35:03.797Z,69.00
2023-06-19T03:36:03.306Z,68.00
2023-06-19T03:37:03.218Z,71.00
2023-06-19T03:38:03.433Z,70.00
2023-06-19T03:39:03.087Z,70.00
2023-06-19T03:40:03.205Z,70.00
2023-06-19T03:41:03.454Z,71.00
2023-06-19T03:42:03.626Z,71.00
2023-06-19T03:43:03.856Z,71.00
2023-06-19T03:44:03.780Z,71.00
2023-06-19T03:45:03.255Z,71.00
2023-06-19T03:46:03.580Z,72.00
2023-06-19T03:47:02.810Z,72.00
2023-06-19T03:48:02.611Z,72.00
2023-06-19T03:49:02.893Z,72.00
2023-06-19T03:50:18.964Z,72.00
2023-06-19T03:51:02.864Z,72.00
2023-06-19T03:52:03.594Z,73.00
2023-06-19T03:53:03.141Z,73.00
2023-06-19T03:54:03.411Z,72.00
2023-06-19T03:55:03.604Z,72.00
2023-06-19T03:56:03.144Z,72.00
2023-06-19T03:57:03.155Z,72.00
2023-06-19T03:58:02.969Z,72.00
2023-06-19T03:59:03.217Z,71.00
2023-06-19T04:00:03.270Z,71.00
2023-06-19T04:01:03.114Z,72.00
2023-06-19T04:02:03.455Z,72.00
2023-06-19T04:03:03.120Z,71.00
2023-06-19T04:04:03.338Z,72.00
2023-06-19T04:05:02.914Z,73.00
2023-06-19T04:06:02.955Z,72.00
2023-06-19T04:07:03.004Z,73.00
2023-06-19T04:08:02.358Z,72.00
2023-06-19T04:09:02.613Z,72.00
2023-06-19T04:10:02.406Z,72.00
2023-06-19T04:11:02.692Z,74.00
2023-06-19T04:12:02.724Z,73.00
2023-06-19T04:13:02.412Z,73.00
2023-06-19T04:14:02.674Z,73.00
2023-06-19T04:15:02.732Z,72.00
2023-06-19T04:16:02.714Z,72.00
2023-06-19T04:17:02.788Z,73.00
2023-06-19T04:18:03.059Z,73.00
2023-06-19T04:19:02.726Z,72.00
2023-06-19T04:20:03.225Z,73.00
2023-06-19T04:21:03.355Z,73.00
2023-06-19T04:22:02.427Z,73.00
2023-06-19T04:23:02.706Z,73.00
2023-06-19T04:24:02.908Z,74.00
2023-06-19T04:25:02.657Z,74.00
2023-06-19T04:26:02.987Z,74.00
2023-06-19T04:27:02.159Z,74.00
2023-06-19T04:28:02.178Z,74.00
2023-06-19T04:29:02.488Z,73.00
2023-06-19T04:30:02.727Z,73.00
2023-06-19T04:31:02.203Z,73.00
2023-06-19T04:32:02.772Z,73.00
2023-06-19T04:33:02.563Z,74.00
2023-06-19T04:34:02.736Z,74.00
2023-06-19T04:35:03.027Z,74.00
2023-06-19T04:36:03.078Z,74.00
2023-06-19T04:37:02.736Z,74.00
2023-06-19T04:38:02.852Z,74.00
2023-06-19T04:39:03.091Z,73.00
2023-06-19T04:40:02.676Z,73.00
2023-06-19T04:41:02.686Z,73.00
2023-06-19T04:42:02.969Z,73.00
2023-06-19T04:43:03.093Z,73.00
2023-06-19T04:44:03.131Z,73.00
2023-06-19T04:45:03.122Z,72.00
2023-06-19T04:46:03.284Z,72.00
2023-06-19T04:47:02.568Z,72.00
2023-06-19T04:48:02.840Z,71.00
2023-06-19T04:49:03.019Z,71.00
2023-06-19T04:50:02.977Z,72.00
2023-06-19T04:51:02.948Z,73.00
2023-06-19T04:52:03.088Z,73.00
2023-06-19T04:53:03.539Z,72.00
2023-06-19T04:54:03.066Z,73.00
2023-06-19T04:55:03.319Z,73.00
2023-06-19T04:56:03.444Z,72.00
2023-06-19T04:57:02.511Z,73.00
2023-06-19T04:58:02.796Z,73.00
2023-06-19T04:59:02.380Z,73.00
2023-06-19T05:00:02.658Z,73.00
2023-06-19T05:01:02.905Z,73.00
2023-06-19T05:02:02.922Z,73.00
2023-06-19T05:03:03.390Z,73.00
2023-06-19T05:04:03.154Z,72.00
2023-06-19T05:05:02.906Z,72.00
2023-06-19T05:06:03.196Z,72.00
2023-06-19T05:07:02.539Z,72.00
2023-06-19T05:08:02.627Z,72.00
2023-06-19T05:09:02.420Z,72.00
2023-06-19T05:10:02.608Z,72.00
2023-06-19T05:11:02.603Z,72.00
2023-06-19T05:12:02.879Z,72.00
2023-06-19T05:13:03.155Z,72.00
2023-06-19T05:14:02.680Z,71.00
2023-06-19T05:15:02.677Z,71.00
2023-06-19T05:16:02.777Z,71.00
2023-06-19T05:17:02.325Z,71.00
2023-06-19T05:18:02.427Z,72.00
2023-06-19T05:19:02.022Z,71.00
2023-06-19T05:20:02.373Z,70.00
2023-06-19T05:21:02.157Z,69.00
2023-06-19T05:22:02.424Z,70.00
2023-06-19T05:23:02.311Z,70.00
2023-06-19T05:24:02.280Z,70.00
2023-06-19T05:25:02.630Z,70.00
2023-06-19T05:26:02.223Z,70.00
2023-06-19T05:27:03.144Z,70.00
2023-06-19T05:28:05.648Z,70.00
2023-06-19T05:29:03.011Z,70.00
2023-06-19T05:30:03.327Z,70.00
2023-06-19T05:31:03.037Z,69.00
2023-06-19T05:32:03.300Z,70.00
2023-06-19T05:33:03.553Z,69.00
2023-06-19T05:34:03.663Z,69.00
2023-06-19T05:35:03.603Z,69.00
2023-06-19T05:36:03.089Z,68.00
2023-06-19T05:37:02.994Z,68.00
2023-06-19T05:38:03.262Z,68.00
2023-06-19T05:39:02.956Z,68.00
2023-06-19T05:40:03.188Z,68.00
2023-06-19T05:41:02.790Z,67.00
2023-06-19T05:42:03.080Z,67.00
2023-06-19T05:43:03.110Z,67.00
2023-06-19T05:44:03.344Z,67.00
2023-06-19T05:45:03.309Z,67.00
2023-06-19T05:46:02.868Z,68.00
2023-06-19T05:47:03.241Z,68.00
2023-06-19T05:48:03.518Z,68.00
2023-06-19T05:49:03.538Z,68.00
2023-06-19T05:50:03.049Z,67.00
2023-06-19T05:51:03.270Z,67.00
2023-06-19T05:52:03.338Z,68.00
2023-06-19T05:53:03.423Z,68.00
2023-06-19T05:54:03.452Z,68.00
2023-06-19T05:55:03.705Z,68.00
2023-06-19T05:56:03.404Z,68.00
2023-06-19T05:57:02.714Z,68.00
2023-06-19T05:58:02.874Z,68.00
2023-06-19T05:59:02.597Z,68.00
2023-06-19T06:00:02.777Z,68.00
2023-06-19T06:01:02.940Z,68.00
2023-06-19T06:02:02.412Z,68.00
2023-06-19T06:03:02.188Z,68.00
2023-06-19T06:04:02.433Z,68.00
2023-06-19T06:05:02.509Z,69.00
2023-06-19T06:06:02.001Z,68.00
2023-06-19T06:07:02.972Z,68.00
2023-06-19T06:08:03.178Z,68.00
2023-06-19T06:09:03.211Z,67.00
2023-06-19T06:10:03.176Z,67.00
2023-06-19T06:11:02.551Z,67.00
2023-06-19T06:12:02.669Z,67.00
2023-06-19T06:13:02.550Z,67.00
2023-06-19T06:14:02.095Z,67.00
2023-06-19T06:15:02.322Z,67.00
2023-06-19T06:16:02.496Z,67.00
2023-06-19T06:17:02.472Z,67.00
2023-06-19T06:18:02.474Z,66.00
2023-06-19T06:19:02.455Z,65.00
2023-06-19T06:20:02.425Z,65.00
2023-06-19T06:21:02.402Z,65.00
2023-06-19T06:22:02.580Z,65.00
2023-06-19T06:23:02.069Z,65.00
2023-06-19T06:24:02.174Z,65.00
2023-06-19T06:25:02.373Z,65.00
2023-06-19T06:26:02.733Z,65.00
2023-06-19T06:27:02.427Z,65.00
2023-06-19T06:28:02.703Z,65.00
2023-06-19T06:29:02.728Z,64.00
2023-06-19T06:30:02.291Z,64.00
2023-06-19T06:31:02.555Z,64.00
2023-06-19T06:32:02.801Z,62.00
2023-06-19T06:33:02.900Z,62.00
2023-06-19T06:34:02.745Z,63.00
2023-06-19T06:35:02.304Z,63.00
2023-06-19T06:36:02.643Z,61.00
2023-06-19T06:37:06.546Z,62.00
2023-06-19T06:38:02.922Z,61.00
2023-06-19T06:39:02.419Z,59.00
2023-06-19T06:40:03.006Z,60.00
2023-06-19T06:41:02.445Z,60.00
2023-06-19T06:42:02.356Z,60.00
2023-06-19T06:43:02.370Z,60.00
2023-06-19T06:44:02.218Z,60.00
2023-06-19T06:45:01.834Z,60.00
2023-06-19T06:46:02.000Z,60.00
2023-06-19T06:47:02.531Z,60.00
2023-06-19T06:48:02.734Z,60.00
2023-06-19T06:49:02.891Z,60.00
2023-06-19T06:50:03.161Z,61.00
2023-06-19T06:51:02.926Z,60.00
2023-06-19T06:52:03.122Z,60.00
2023-06-19T06:53:03.085Z,59.00
2023-06-19T06:54:03.183Z,59.00
2023-06-19T06:55:03.105Z,60.00
2023-06-19T06:56:02.731Z,57.00
2023-06-19T06:57:02.667Z,58.00
2023-06-19T06:58:02.318Z,58.00
2023-06-19T06:59:02.294Z,58.00
2023-06-19T07:00:02.066Z,57.00
2023-06-19T07:01:02.382Z,57.00
2023-06-19T07:02:03.275Z,57.00
2023-06-19T07:03:02.799Z,57.00
2023-06-19T07:04:02.855Z,57.00
2023-06-19T07:05:03.011Z,57.00
2023-06-19T07:06:03.011Z,57.00
2023-06-19T07:07:02.724Z,57.00
2023-06-19T07:08:02.691Z,57.00
2023-06-19T07:09:02.575Z,57.00
2023-06-19T07:10:02.770Z,57.00
2023-06-19T07:11:02.433Z,57.00
2023-06-19T07:12:03.340Z,57.00
2023-06-19T07:13:02.820Z,57.00
2023-06-19T07:14:02.996Z,56.00
2023-06-19T07:15:03.123Z,56.00
2023-06-19T07:16:02.645Z,57.00
2023-06-19T07:17:03.465Z,56.00
2023-06-19T07:18:03.176Z,57.00
2023-06-19T07:19:03.381Z,56.00
2023-06-19T07:20:03.231Z,56.00
2023-06-19T07:21:03.457Z,56.00
2023-06-19T07:22:02.443Z,57.00
2023-06-19T07:23:02.873Z,56.00
2023-06-19T07:24:02.710Z,56.00
2023-06-19T07:25:02.864Z,56.00
2023-06-19T07:26:02.457Z,56.00
2023-06-19T07:27:02.738Z,57.00
2023-06-19T07:28:02.896Z,57.00
2023-06-19T07:29:03.034Z,57.00
2023-06-19T07:30:02.955Z,57.00
2023-06-19T07:31:02.968Z,57.00
2023-06-19T07:32:02.788Z,57.00
2023-06-19T07:33:02.896Z,58.00
2023-06-19T07:34:03.233Z,58.00
2023-06-19T07:35:02.793Z,57.00
2023-06-19T07:36:02.963Z,56.00
2023-06-19T07:37:02.293Z,55.00
2023-06-19T07:38:02.665Z,55.00
2023-06-19T07:39:02.794Z,56.00
2023-06-19T07:40:02.463Z,55.00
2023-06-19T07:41:02.472Z,55.00
2023-06-19T07:42:02.728Z,55.00
2023-06-19T07:43:03.296Z,54.00
2023-06-19T07:44:03.203Z,55.00
2023-06-19T07:45:02.764Z,55.00
2023-06-19T07:46:02.706Z,55.00
2023-06-19T07:47:02.331Z,55.00
2023-06-19T07:48:02.704Z,54.00
2023-06-19T07:49:02.326Z,56.00
2023-06-19T07:50:02.647Z,56.00
2023-06-19T07:51:02.751Z,52.00
2023-06-19T07:52:02.673Z,52.00
2023-06-19T07:53:02.948Z,53.00
2023-06-19T07:54:02.519Z,53.00
2023-06-19T07:55:02.780Z,53.00
2023-06-19T07:56:02.874Z,53.00
2023-06-19T07:57:02.978Z,53.00
2023-06-19T07:58:03.147Z,53.00
2023-06-19T07:59:05.844Z,52.00
2023-06-19T08:00:03.633Z,52.00
2023-06-19T08:01:02.929Z,53.00
2023-06-19T08:02:03.370Z,53.00
2023-06-19T08:03:03.644Z,53.00
2023-06-19T08:04:03.883Z,53.00
2023-06-19T08:05:03.901Z,52.00
2023-06-19T08:06:03.724Z,52.00
2023-06-19T08:07:03.390Z,52.00
2023-06-19T08:08:03.488Z,52.00
2023-06-19T08:09:03.601Z,54.00
2023-06-19T08:10:13.184Z,51.00
2023-06-19T08:11:03.580Z,51.00
2023-06-19T08:12:02.664Z,52.00
2023-06-19T08:13:02.774Z,53.00
2023-06-19T08:14:03.108Z,53.00
2023-06-19T08:15:02.604Z,52.00
2023-06-19T08:16:03.032Z,54.00
2023-06-19T08:17:03.315Z,54.00
2023-06-19T08:18:03.502Z,53.00
2023-06-19T08:19:03.100Z,52.00
2023-06-19T08:20:03.325Z,52.00
2023-06-19T08:21:03.492Z,51.00
2023-06-19T08:22:02.838Z,50.00
2023-06-19T08:23:05.157Z,50.00
2023-06-19T08:24:03.362Z,50.00
2023-06-19T08:25:03.358Z,51.00
2023-06-19T08:26:02.627Z,51.00
2023-06-19T08:27:03.374Z,51.00
2023-06-19T08:28:03.395Z,51.00
2023-06-19T08:29:03.586Z,51.00
2023-06-19T08:30:03.820Z,51.00
2023-06-19T08:31:03.424Z,50.00
2023-06-19T08:32:03.593Z,51.00
2023-06-19T08:33:03.828Z,51.00
2023-06-19T08:34:03.625Z,49.00
2023-06-19T08:35:03.528Z,48.00
2023-06-19T08:36:03.707Z,47.00
2023-06-19T08:37:03.027Z,47.00
2023-06-19T08:38:03.273Z,47.00
2023-06-19T08:39:03.395Z,49.00
2023-06-19T08:40:03.367Z,48.00
2023-06-19T08:41:02.854Z,49.00
2023-06-19T08:42:03.681Z,48.00
2023-06-19T08:43:03.699Z,47.00
2023-06-19T08:44:03.831Z,47.00
2023-06-19T08:45:03.972Z,47.00
2023-06-19T08:46:03.764Z,48.00
2023-06-19T08:47:03.085Z,47.00
2023-06-19T08:48:03.038Z,48.00
2023-06-19T08:49:03.307Z,48.00
2023-06-19T08:50:03.216Z,50.00
2023-06-19T08:51:02.856Z,49.00
2023-06-19T08:52:03.062Z,50.00
2023-06-19T08:53:03.350Z,49.00
2023-06-19T08:54:02.884Z,47.00
2023-06-19T08:55:03.360Z,48.00
2023-06-19T08:56:02.862Z,48.00
2023-06-19T08:57:03.867Z,47.00
2023-06-19T08:58:03.493Z,46.00
2023-06-19T08:59:03.545Z,46.00
2023-06-19T09:00:03.755Z,46.00
2023-06-19T09:01:04.080Z,46.00
2023-06-19T09:02:02.433Z,47.00
2023-06-19T09:03:13.395Z,48.00
2023-06-19T09:04:02.511Z,49.00
2023-06-19T09:05:02.225Z,46.00
2023-06-19T09:06:02.477Z,47.00
2023-06-19T09:07:02.807Z,47.00
2023-06-19T09:08:02.884Z,47.00
2023-06-19T09:09:02.779Z,46.00
2023-06-19T09:10:02.283Z,47.00
2023-06-19T09:11:02.451Z,46.00
2023-06-19T09:12:02.371Z,46.00
2023-06-19T09:13:01.952Z,45.00
2023-06-19T09:14:02.243Z,45.00
2023-06-19T09:15:02.350Z,46.00
2023-06-19T09:16:02.466Z,43.00
2023-06-19T09:17:02.775Z,43.00
2023-06-19T09:18:02.381Z,44.00
2023-06-19T09:19:02.654Z,43.00
2023-06-19T09:20:02.788Z,42.00
2023-06-19T09:21:02.353Z,42.00
2023-06-19T09:22:02.965Z,43.00
2023-06-19T09:23:02.501Z,42.00
2023-06-19T09:24:02.907Z,41.00
2023-06-19T09:25:02.992Z,42.00
2023-06-19T09:26:03.144Z,41.00
2023-06-19T09:27:03.085Z,41.00
2023-06-19T09:28:02.611Z,41.00
2023-06-19T09:29:02.716Z,41.00
2023-06-19T09:30:03.006Z,40.00
2023-06-19T09:31:03.163Z,40.00
2023-06-19T09:32:02.443Z,41.00
2023-06-19T09:33:02.004Z,42.00
2023-06-19T09:34:02.300Z,41.00
2023-06-19T09:35:02.462Z,42.00
2023-06-19T09:36:02.749Z,42.00
2023-06-19T09:37:02.720Z,42.00
2023-06-19T09:38:02.814Z,42.00
2023-06-19T09:39:02.756Z,43.00
2023-06-19T09:40:02.362Z,42.00
2023-06-19T09:41:02.618Z,42.00
2023-06-19T09:42:02.943Z,43.00
2023-06-19T09:43:02.491Z,42.00
2023-06-19T09:44:02.702Z,41.00
2023-06-19T09:45:03.014Z,43.00
2023-06-19T09:46:03.020Z,42.00
2023-06-19T09:47:03.303Z,41.00
2023-06-19T09:48:02.883Z,42.00
2023-06-19T09:49:03.116Z,42.00
2023-06-19T09:50:03.223Z,41.00
2023-06-19T09:51:02.856Z,40.00
2023-06-19T09:52:02.893Z,41.00
2023-06-19T09:53:05.252Z,40.00
2023-06-19T09:54:02.630Z,41.00
2023-06-19T09:55:02.943Z,40.00
2023-06-19T09:56:02.777Z,39.00
2023-06-19T09:57:03.141Z,39.00
2023-06-19T09:58:03.158Z,39.00
2023-06-19T09:59:02.755Z,40.00
2023-06-19T10:00:03.110Z,38.00
2023-06-19T10:01:02.558Z,39.00
2023-06-19T10:02:02.622Z,39.00
2023-06-19T10:03:02.108Z,36.00
2023-06-19T10:04:02.315Z,38.00
2023-06-19T10:05:02.550Z,38.00
2023-06-19T10:06:02.553Z,38.00
2023-06-19T10:07:02.714Z,38.00
2023-06-19T10:08:02.180Z,40.00
2023-06-19T10:09:02.420Z,40.00
2023-06-19T10:10:02.352Z,37.00
2023-06-19T10:11:02.476Z,37.00
2023-06-19T10:12:03.303Z,38.00
2023-06-19T10:13:03.128Z,37.00
2023-06-19T10:14:02.704Z,38.00
2023-06-19T10:15:02.911Z,37.00
2023-06-19T10:16:02.854Z,34.00
2023-06-19T10:17:03.644Z,36.00
2023-06-19T10:18:03.597Z,37.00
2023-06-19T10:19:03.583Z,36.00
2023-06-19T10:20:03.616Z,36.00
2023-06-19T10:21:03.617Z,36.00
2023-06-19T10:22:02.657Z,37.00
2023-06-19T10:23:02.743Z,36.00
2023-06-19T10:24:03.506Z,36.00
2023-06-19T10:25:03.007Z,36.00
2023-06-19T10:26:04.196Z,35.00
2023-06-19T10:27:02.732Z,33.00
2023-06-19T10:28:03.098Z,33.00
2023-06-19T10:29:03.318Z,34.00
2023-06-19T10:30:10.980Z,35.00
2023-06-19T10:31:03.448Z,34.00
2023-06-19T10:32:03.403Z,36.00
2023-06-19T10:33:02.628Z,36.00
2023-06-19T10:34:02.753Z,36.00
2023-06-19T10:35:02.999Z,34.00
2023-06-19T10:36:02.536Z,35.00
2023-06-19T10:37:02.788Z,35.00
2023-06-19T10:38:03.093Z,35.00
2023-06-19T10:39:03.283Z,35.00
2023-06-19T10:40:03.533Z,35.00
2023-06-19T10:41:03.000Z,34.00
2023-06-19T10:42:05.816Z,35.00
2023-06-19T10:43:02.915Z,34.00
2023-06-19T10:44:02.958Z,34.00
2023-06-19T10:45:02.881Z,34.00
2023-06-19T10:46:02.859Z,33.00
2023-06-19T10:47:02.926Z,34.00
2023-06-19T10:48:02.973Z,34.00
2023-06-19T10:49:02.987Z,33.00
2023-06-19T10:50:02.366Z,33.00
2023-06-19T10:51:02.670Z,34.00
2023-06-19T10:52:02.930Z,33.00
2023-06-19T10:53:02.583Z,34.00
2023-06-19T10:54:02.920Z,34.00
2023-06-19T10:55:03.189Z,34.00
2023-06-19T10:56:02.720Z,34.00
2023-06-19T10:57:02.929Z,35.00
2023-06-19T10:58:03.818Z,34.00
2023-06-19T10:59:03.332Z,34.00
2023-06-19T11:00:03.876Z,32.00
2023-06-19T11:01:03.422Z,33.00
2023-06-19T11:02:03.551Z,32.00
2023-06-19T11:03:03.102Z,32.00
2023-06-19T11:04:02.546Z,32.00
2023-06-19T11:05:02.901Z,32.00
2023-06-19T11:06:02.386Z,32.00
2023-06-19T11:07:02.623Z,32.00
2023-06-19T11:08:01.963Z,33.00
2023-06-19T11:09:02.170Z,32.00
2023-06-19T11:10:02.383Z,32.00
2023-06-19T11:11:01.973Z,32.00
2023-06-19T11:12:02.219Z,33.00
2023-06-19T11:13:02.478Z,31.00
2023-06-19T11:14:02.648Z,30.00
2023-06-19T11:15:02.857Z,31.00
2023-06-19T11:16:03.140Z,32.00
2023-06-19T11:17:02.576Z,31.00
2023-06-19T11:18:02.000Z,31.00
2023-06-19T11:19:02.358Z,32.00
2023-06-19T11:20:02.160Z,31.00
2023-06-19T11:21:03.104Z,31.00
2023-06-19T11:22:02.454Z,32.00
2023-06-19T11:23:02.701Z,31.00
2023-06-19T11:24:02.668Z,31.00
2023-06-19T11:25:02.198Z,30.00
2023-06-19T11:26:02.505Z,31.00
2023-06-19T11:27:02.690Z,29.00
2023-06-19T11:28:03.249Z,31.00
2023-06-19T11:29:02.758Z,30.00
2023-06-19T11:30:03.067Z,30.00
2023-06-19T11:31:03.468Z,31.00
2023-06-19T11:32:02.706Z,32.00
2023-06-19T11:33:02.073Z,31.00
2023-06-19T11:34:02.431Z,30.00
2023-06-19T11:35:02.109Z,29.00
2023-06-19T11:36:02.512Z,30.00
2023-06-19T11:37:02.087Z,30.00
2023-06-19T11:38:02.475Z,30.00
2023-06-19T11:39:02.755Z,30.00
2023-06-19T11:40:02.936Z,31.00
2023-06-19T11:41:02.904Z,29.00
2023-06-19T11:42:02.265Z,28.00
2023-06-19T11:43:02.425Z,31.00
2023-06-19T11:44:02.723Z,29.00
2023-06-19T11:45:02.920Z,28.00
2023-06-19T11:46:03.228Z,29.00
2023-06-19T11:47:03.133Z,29.00
2023-06-19T11:48:03.119Z,29.00
2023-06-19T11:49:07.452Z,28.00
2023-06-19T11:50:03.117Z,29.00
2023-06-19T11:51:03.448Z,30.00
2023-06-19T11:52:03.785Z,30.00
2023-06-19T11:53:02.796Z,30.00
2023-06-19T11:54:03.073Z,30.00
2023-06-19T11:55:02.800Z,30.00
2023-06-19T11:56:03.165Z,30.00
2023-06-19T11:57:03.409Z,30.00
2023-06-19T11:58:02.488Z,31.00
2023-06-19T11:59:02.326Z,32.00
2023-06-19T12:00:02.646Z,31.00
2023-06-19T12:01:02.993Z,29.00
2023-06-19T12:02:03.082Z,28.00
2023-06-19T12:03:03.239Z,29.00
2023-06-19T12:04:03.788Z,30.00
2023-06-19T12:05:03.371Z,30.00
2023-06-19T12:06:03.713Z,30.00
2023-06-19T12:07:03.623Z,31.00
2023-06-19T12:08:02.991Z,31.00
2023-06-19T12:09:02.690Z,30.00
2023-06-19T12:10:04.007Z,30.00
2023-06-19T12:11:03.342Z,31.00
2023-06-19T12:12:03.235Z,30.00
2023-06-19T12:13:03.321Z,30.00
2023-06-19T12:14:03.656Z,29.00
2023-06-19T12:15:03.326Z,29.00
2023-06-19T12:16:03.286Z,29.00
2023-06-19T12:17:03.630Z,29.00
2023-06-19T12:18:03.137Z,29.00
2023-06-19T12:19:02.770Z,28.00
2023-06-19T12:20:02.929Z,30.00
2023-06-19T12:21:03.264Z,30.00
2023-06-19T12:22:03.345Z,30.00
2023-06-19T12:23:03.597Z,29.00
2023-06-19T12:24:03.643Z,29.00
2023-06-19T12:25:03.858Z,28.00
2023-06-19T12:26:03.883Z,28.00
2023-06-19T12:27:03.927Z,29.00
2023-06-19T12:28:03.428Z,29.00
2023-06-19T12:29:03.066Z,29.00
2023-06-19T12:30:03.407Z,29.00
2023-06-19T12:31:03.026Z,28.00
2023-06-19T12:32:03.210Z,28.00
2023-06-19T12:33:03.549Z,29.00
2023-06-19T12:34:10.424Z,28.00
2023-06-19T12:35:03.591Z,28.00
2023-06-19T12:36:03.279Z,28.00
2023-06-19T12:37:03.592Z,28.00
2023-06-19T12:38:06.653Z,27.00
2023-06-19T12:39:03.796Z,26.00
2023-06-19T12:40:04.045Z,28.00
2023-06-19T12:41:03.844Z,28.00
2023-06-19T12:42:04.158Z,26.00
2023-06-19T12:43:03.591Z,27.00
2023-06-19T12:44:03.789Z,27.00
2023-06-19T12:45:03.821Z,28.00
2023-06-19T12:46:03.263Z,27.00
2023-06-19T12:47:03.496Z,28.00
2023-06-19T12:48:04.153Z,28.00
2023-06-19T12:49:03.823Z,28.00
2023-06-19T12:50:03.507Z,29.00
2023-06-19T12:51:03.787Z,29.00
2023-06-19T12:52:03.684Z,28.00